Time;durP1;ratioP1;P1;durP2;ratioP2;P2;SDS_P1;SDS_P2;PMS_P1;PMS_P2;Temp;Humidity;BMP_temperature;BMP_pressure;BME280_temperature;BME280_humidity;BME280_pressure;Samples;Min_cycle;Max_cycle;Signal;HPM_P1;HPM_P2
2021/07/18 00:00:27;;;;;;;2.75;2.65;;;14.40;98.60;;;;;;5072388;28;20419;-61
2021/07/18 00:02:54;;;;;;;2.40;2.30;;;14.50;98.50;;;;;;5072325;28;20070;-62
2021/07/18 00:05:22;;;;;;;2.70;2.60;;;14.50;98.00;;;;;;5072323;28;20472;-61
2021/07/18 00:07:49;;;;;;;2.70;2.50;;;14.70;98.40;;;;;;5073164;28;20393;-61
2021/07/18 00:10:16;;;;;;;2.60;2.50;;;14.90;98.20;;;;;;5076072;28;20017;-60
2021/07/18 00:12:44;;;;;;;2.20;2.20;;;14.90;97.20;;;;;;5076133;28;20082;-61
2021/07/18 00:15:14;;;;;;;2.67;2.58;;;14.90;97.30;;;;;;5076169;28;20107;-62
2021/07/18 00:17:41;;;;;;;2.88;2.72;;;14.80;97.60;;;;;;5076074;28;20153;-62
2021/07/18 00:20:14;;;;;;;2.88;2.67;;;15.00;97.60;;;;;;5075883;28;20097;-62
2021/07/18 00:22:42;;;;;;;2.28;2.10;;;15.00;97.30;;;;;;5075962;28;20400;-63
2021/07/18 00:25:11;;;;;;;2.60;2.50;;;15.00;97.10;;;;;;5075902;28;20508;-62
2021/07/18 00:27:39;;;;;;;2.40;2.30;;;15.20;96.90;;;;;;5075712;28;20031;-61
2021/07/18 00:30:07;;;;;;;2.50;2.40;;;15.10;96.80;;;;;;5075825;28;20024;-61
2021/07/18 00:32:35;;;;;;;2.53;2.42;;;15.10;96.80;;;;;;5075621;28;20086;-61
2021/07/18 00:35:03;;;;;;;2.47;2.38;;;15.10;96.90;;;;;;5075662;28;20028;-62
2021/07/18 00:37:31;;;;;;;2.60;2.50;;;15.20;96.80;;;;;;5075583;28;20438;-61
2021/07/18 00:39:58;;;;;;;2.33;2.22;;;15.30;97.00;;;;;;5075550;28;20112;-62
2021/07/18 00:42:25;;;;;;;2.60;2.50;;;15.50;96.40;;;;;;5074202;28;20119;-62
2021/07/18 00:44:53;;;;;;;2.72;2.63;;;15.40;96.30;;;;;;5075601;28;20016;-62
2021/07/18 00:47:23;;;;;;;2.80;2.70;;;15.40;96.20;;;;;;5075479;28;20024;-63
2021/07/18 00:49:50;;;;;;;2.97;2.78;;;15.40;96.20;;;;;;5075548;28;20090;-62
2021/07/18 00:52:18;;;;;;;2.95;2.75;;;15.50;96.20;;;;;;5075483;28;20064;-63
2021/07/18 00:54:45;;;;;;;2.60;2.50;;;15.70;96.40;;;;;;5075206;28;20070;-62
2021/07/18 00:57:13;;;;;;;2.60;2.50;;;15.60;95.70;;;;;;5074867;28;20052;-61
2021/07/18 00:59:40;;;;;;;2.33;2.22;;;15.60;96.00;;;;;;5075174;28;20028;-61
2021/07/18 01:02:08;;;;;;;2.40;2.30;;;15.60;95.60;;;;;;5075047;28;20027;-61
2021/07/18 01:04:36;;;;;;;2.53;2.30;;;15.70;95.70;;;;;;5074862;28;20021;-61
2021/07/18 01:07:04;;;;;;;2.40;2.30;;;15.80;96.00;;;;;;5075085;28;20432;-62
2021/07/18 01:09:32;;;;;;;1.90;1.90;;;15.80;96.00;;;;;;5075109;28;20023;-62
2021/07/18 01:11:59;;;;;;;2.40;2.20;;;15.80;95.60;;;;;;5074754;28;20029;-59
2021/07/18 01:14:27;;;;;;;2.30;2.20;;;15.80;95.40;;;;;;5075107;28;20024;-60
2021/07/18 01:16:56;;;;;;;2.28;2.17;;;15.80;95.20;;;;;;5074646;28;20424;-61
2021/07/18 01:19:24;;;;;;;1.90;1.90;;;16.00;95.60;;;;;;5072332;28;20082;-61
2021/07/18 01:21:58;;;;;;;2.08;1.98;;;15.80;94.90;;;;;;5074603;28;20025;-60
2021/07/18 01:24:28;;;;;;;2.30;2.20;;;15.90;95.00;;;;;;5074536;28;20051;-61
2021/07/18 01:26:56;;;;;;;2.00;1.90;;;16.00;95.00;;;;;;5074487;28;20048;-63
2021/07/18 01:29:24;;;;;;;1.90;1.80;;;16.30;94.20;;;;;;5074337;28;20017;-63
2021/07/18 01:31:51;;;;;;;1.80;1.70;;;16.30;94.50;;;;;;5074369;28;20488;-63
2021/07/18 01:34:18;;;;;;;2.00;1.90;;;16.50;94.10;;;;;;5074244;28;20074;-62
2021/07/18 01:36:46;;;;;;;2.20;2.10;;;16.50;94.00;;;;;;5074127;28;20082;-62
2021/07/18 01:39:15;;;;;;;2.20;2.20;;;16.60;94.00;;;;;;5074127;28;20027;-62
2021/07/18 01:41:47;;;;;;;2.13;2.03;;;16.60;93.60;;;;;;5074228;28;20028;-63
2021/07/18 01:44:14;;;;;;;2.05;1.95;;;16.70;93.40;;;;;;5074083;28;20093;-62
2021/07/18 01:46:42;;;;;;;1.90;1.90;;;16.80;93.70;;;;;;5074014;28;20057;-62
2021/07/18 01:49:11;;;;;;;2.38;2.28;;;16.90;93.20;;;;;;5073944;28;20021;-62
2021/07/18 01:51:39;;;;;;;2.40;2.30;;;16.80;93.20;;;;;;5074002;28;20044;-62
2021/07/18 01:54:08;;;;;;;2.95;2.53;;;16.80;94.10;;;;;;5073924;28;20078;-62
2021/07/18 01:56:36;;;;;;;2.60;2.40;;;16.90;93.30;;;;;;5073587;28;20044;-62
2021/07/18 01:59:04;;;;;;;2.60;2.50;;;17.00;93.10;;;;;;5073660;28;20104;-63
2021/07/18 02:01:34;;;;;;;2.65;2.55;;;17.10;93.00;;;;;;5073777;28;20020;-63
2021/07/18 02:04:02;;;;;;;2.97;2.80;;;17.20;93.10;;;;;;5073836;28;20024;-61
2021/07/18 02:06:30;;;;;;;2.50;2.40;;;17.20;93.00;;;;;;5073578;28;20107;-63
2021/07/18 02:09:00;;;;;;;2.80;2.70;;;17.10;92.60;;;;;;5073670;28;20032;-63
2021/07/18 02:11:28;;;;;;;3.00;2.90;;;17.10;92.40;;;;;;5073961;28;20070;-61
2021/07/18 02:13:58;;;;;;;3.10;2.90;;;17.10;92.60;;;;;;5073748;28;20472;-62
2021/07/18 02:16:28;;;;;;;3.65;3.00;;;17.40;92.60;;;;;;5073799;28;20025;-62
2021/07/18 02:18:56;;;;;;;3.65;3.05;;;17.40;92.10;;;;;;5073729;28;20384;-62
2021/07/18 02:21:23;;;;;;;2.60;2.50;;;17.60;92.60;;;;;;5073599;28;20031;-63
2021/07/18 02:23:51;;;;;;;2.30;2.20;;;17.70;91.60;;;;;;5073299;28;20025;-62
2021/07/18 02:26:18;;;;;;;2.33;2.22;;;17.70;91.70;;;;;;5073322;28;20103;-62
2021/07/18 02:28:46;;;;;;;2.53;2.42;;;17.80;91.90;;;;;;5073309;28;20047;-61
2021/07/18 02:31:13;;;;;;;2.60;2.50;;;17.80;91.10;;;;;;5073407;28;20035;-61
2021/07/18 02:33:41;;;;;;;2.83;2.63;;;17.50;91.30;;;;;;5073359;28;20500;-61
2021/07/18 02:36:08;;;;;;;2.53;2.42;;;17.60;91.40;;;;;;5073192;28;20036;-62
2021/07/18 02:38:35;;;;;;;2.60;2.50;;;17.80;91.80;;;;;;5073265;28;20025;-61
2021/07/18 02:41:03;;;;;;;2.80;2.60;;;17.70;91.20;;;;;;5073254;28;20029;-62
2021/07/18 02:43:30;;;;;;;2.40;2.30;;;17.70;91.80;;;;;;5073256;28;20047;-61
2021/07/18 02:45:58;;;;;;;2.70;2.60;;;17.70;91.40;;;;;;5073331;28;20016;-60
2021/07/18 02:48:25;;;;;;;2.40;2.30;;;17.50;91.10;;;;;;5073154;28;20024;-61
2021/07/18 02:50:53;;;;;;;2.55;2.45;;;17.60;91.20;;;;;;5073143;28;20024;-62
2021/07/18 02:53:20;;;;;;;2.00;2.00;;;17.50;91.00;;;;;;5073237;28;20507;-62
2021/07/18 02:55:47;;;;;;;2.72;2.63;;;17.50;90.40;;;;;;5073009;28;20075;-62
2021/07/18 02:58:14;;;;;;;2.58;2.47;;;17.60;90.70;;;;;;5072974;28;20025;-61
2021/07/18 03:00:45;;;;;;;2.80;2.70;;;17.70;90.40;;;;;;5073026;28;20051;-62
2021/07/18 03:03:12;;;;;;;2.60;2.50;;;17.90;90.80;;;;;;5073041;28;20017;-62
2021/07/18 03:05:39;;;;;;;2.60;2.50;;;17.90;90.60;;;;;;5073062;28;20016;-61
2021/07/18 03:08:08;;;;;;;2.50;2.40;;;17.80;90.20;;;;;;5073346;28;20070;-62
2021/07/18 03:10:35;;;;;;;2.70;2.60;;;17.70;90.70;;;;;;5072918;28;20033;-61
2021/07/18 03:13:03;;;;;;;4.68;2.70;;;17.80;90.80;;;;;;5073102;28;20519;-61
2021/07/18 03:15:30;;;;;;;2.70;2.60;;;17.80;91.00;;;;;;5073066;28;20020;-60
2021/07/18 03:17:58;;;;;;;2.83;2.72;;;17.80;91.00;;;;;;5072836;28;20029;-60
2021/07/18 03:20:25;;;;;;;2.70;2.60;;;17.90;91.20;;;;;;5072758;28;20388;-62
2021/07/18 03:22:52;;;;;;;2.60;2.50;;;18.10;91.00;;;;;;5072917;28;20048;-61
2021/07/18 03:25:20;;;;;;;2.33;2.15;;;18.10;90.70;;;;;;5072820;28;20013;-62
2021/07/18 03:27:48;;;;;;;2.40;2.30;;;18.20;90.70;;;;;;5072524;28;20021;-61
2021/07/18 03:30:17;;;;;;;2.63;2.53;;;18.40;91.40;;;;;;5073064;28;20029;-62
2021/07/18 03:32:45;;;;;;;2.80;2.70;;;18.30;90.30;;;;;;5072863;28;20025;-61
2021/07/18 03:35:12;;;;;;;3.10;2.90;;;18.30;90.60;;;;;;5072854;28;20025;-62
2021/07/18 03:37:40;;;;;;;2.78;2.67;;;18.30;90.60;;;;;;5072866;28;20024;-62
2021/07/18 03:40:09;;;;;;;2.90;2.80;;;18.30;90.90;;;;;;5072574;28;20029;-62
2021/07/18 03:42:38;;;;;;;3.25;3.15;;;18.20;90.70;;;;;;5073212;28;20027;-62
2021/07/18 03:45:06;;;;;;;3.03;2.88;;;18.20;90.90;;;;;;5076835;28;20384;-62
2021/07/18 03:47:35;;;;;;;2.85;2.75;;;18.30;90.70;;;;;;5076724;28;20095;-62
2021/07/18 03:50:04;;;;;;;3.00;2.90;;;18.20;90.30;;;;;;5076872;28;20415;-62
2021/07/18 03:52:31;;;;;;;3.00;2.90;;;18.20;90.30;;;;;;5076568;28;20392;-62
2021/07/18 03:54:59;;;;;;;2.90;2.80;;;18.10;90.20;;;;;;5076841;28;20099;-62
2021/07/18 03:57:26;;;;;;;2.95;2.85;;;18.10;90.10;;;;;;5076502;28;20132;-62
2021/07/18 03:59:54;;;;;;;3.00;2.90;;;18.10;90.00;;;;;;5076320;28;20127;-62
2021/07/18 04:02:21;;;;;;;3.00;2.90;;;18.20;90.10;;;;;;5076381;28;20423;-62
2021/07/18 04:04:49;;;;;;;3.45;3.25;;;17.90;90.00;;;;;;5076326;28;20129;-62
2021/07/18 04:07:16;;;;;;;3.20;3.10;;;17.90;89.60;;;;;;5076371;28;20013;-61
2021/07/18 04:09:44;;;;;;;3.00;2.90;;;17.90;90.30;;;;;;5076276;28;20028;-61
2021/07/18 04:12:11;;;;;;;3.40;3.30;;;17.80;90.20;;;;;;5076215;28;20477;-61
2021/07/18 04:14:38;;;;;;;2.90;2.80;;;17.90;89.70;;;;;;5076034;28;20025;-61
2021/07/18 04:17:06;;;;;;;2.85;2.75;;;17.90;89.60;;;;;;5075958;28;20475;-61
2021/07/18 04:19:33;;;;;;;2.80;2.70;;;17.90;89.90;;;;;;5076211;28;20111;-61
2021/07/18 04:22:01;;;;;;;3.38;3.17;;;17.90;90.10;;;;;;5076048;28;20040;-61
2021/07/18 04:24:28;;;;;;;2.70;2.50;;;17.90;90.50;;;;;;5075931;28;20020;-61
2021/07/18 04:26:55;;;;;;;2.50;2.40;;;17.80;90.10;;;;;;5075827;28;20020;-61
2021/07/18 04:29:22;;;;;;;2.92;2.72;;;17.80;90.40;;;;;;5074497;28;20031;-62
2021/07/18 04:31:50;;;;;;;2.60;2.50;;;17.90;90.00;;;;;;5075815;28;20025;-61
2021/07/18 04:34:18;;;;;;;2.90;2.80;;;17.70;90.40;;;;;;5075859;28;20082;-61
2021/07/18 04:36:46;;;;;;;2.40;2.30;;;17.70;90.30;;;;;;5075495;28;20059;-62
2021/07/18 04:39:14;;;;;;;2.58;2.47;;;17.70;90.60;;;;;;5075445;28;20052;-61
2021/07/18 04:41:41;;;;;;;2.80;2.70;;;17.70;90.10;;;;;;5075478;28;20027;-61
2021/07/18 04:44:09;;;;;;;2.90;2.80;;;17.60;90.00;;;;;;5075510;28;20358;-60
2021/07/18 04:46:36;;;;;;;2.80;2.70;;;17.60;90.30;;;;;;5075422;28;20094;-62
2021/07/18 04:49:04;;;;;;;3.25;3.15;;;17.70;90.80;;;;;;5075513;28;20032;-61
2021/07/18 04:51:31;;;;;;;2.70;2.60;;;17.80;90.60;;;;;;5075287;28;20036;-61
2021/07/18 04:53:59;;;;;;;2.60;2.45;;;17.70;90.50;;;;;;5074636;28;20029;-61
2021/07/18 04:56:27;;;;;;;3.00;2.90;;;17.60;90.10;;;;;;5074920;28;20040;-60
2021/07/18 04:58:54;;;;;;;2.70;2.60;;;17.60;90.40;;;;;;5075243;28;20025;-62
2021/07/18 05:01:21;;;;;;;3.10;2.90;;;17.60;90.20;;;;;;5075355;28;20031;-62
2021/07/18 05:03:49;;;;;;;2.50;2.40;;;17.60;90.10;;;;;;5075380;28;20021;-61
2021/07/18 05:06:16;;;;;;;2.90;2.80;;;17.60;89.80;;;;;;5075175;28;20017;-62
2021/07/18 05:08:43;;;;;;;3.33;3.15;;;17.50;89.90;;;;;;5075147;28;20036;-61
2021/07/18 05:11:10;;;;;;;3.25;3.13;;;17.60;90.20;;;;;;5075263;28;20025;-61
2021/07/18 05:13:38;;;;;;;2.55;2.45;;;17.60;90.30;;;;;;5075059;28;20024;-61
2021/07/18 05:16:05;;;;;;;2.50;2.40;;;17.60;90.60;;;;;;5075065;28;20020;-62
2021/07/18 05:18:33;;;;;;;3.20;3.10;;;17.50;90.70;;;;;;5074890;28;20059;-62
2021/07/18 05:21:00;;;;;;;3.30;3.10;;;17.40;90.50;;;;;;5074922;28;20016;-60
2021/07/18 05:23:27;;;;;;;3.10;3.00;;;17.40;90.50;;;;;;5074674;28;20043;-60
2021/07/18 05:25:55;;;;;;;2.60;2.50;;;17.30;90.40;;;;;;5074899;28;20058;-61
2021/07/18 05:28:22;;;;;;;2.60;2.50;;;17.30;90.00;;;;;;5074720;28;20535;-61
2021/07/18 05:30:49;;;;;;;2.70;2.60;;;17.20;90.30;;;;;;5074736;28;20527;-61
2021/07/18 05:33:17;;;;;;;2.50;2.40;;;17.20;90.20;;;;;;5074696;28;20016;-62
2021/07/18 05:35:44;;;;;;;2.80;2.70;;;17.10;89.10;;;;;;5074578;28;20070;-62
2021/07/18 05:38:12;;;;;;;2.50;2.40;;;17.10;89.90;;;;;;5073051;28;20029;-61
2021/07/18 05:40:39;;;;;;;2.90;2.80;;;17.10;90.40;;;;;;5074522;28;20052;-62
2021/07/18 05:43:07;;;;;;;2.70;2.60;;;17.10;90.10;;;;;;5074356;28;20020;-60
2021/07/18 05:45:34;;;;;;;2.83;2.72;;;17.10;91.10;;;;;;5074453;28;20522;-61
2021/07/18 05:48:02;;;;;;;2.80;2.65;;;17.00;90.30;;;;;;5074508;28;20023;-63
2021/07/18 05:50:29;;;;;;;2.67;2.58;;;16.90;90.00;;;;;;5074308;28;20028;-62
2021/07/18 05:52:56;;;;;;;3.10;3.00;;;16.90;90.20;;;;;;5074288;28;20023;-63
2021/07/18 05:55:24;;;;;;;2.78;2.67;;;16.90;90.00;;;;;;5074124;28;20020;-63
2021/07/18 05:57:53;;;;;;;2.30;2.30;;;16.90;90.00;;;;;;5074263;28;20527;-61
2021/07/18 06:00:21;;;;;;;2.50;2.40;;;16.90;91.60;;;;;;5074036;28;20042;-61
2021/07/18 06:02:49;;;;;;;2.50;2.40;;;16.90;90.40;;;;;;5074013;28;20016;-62
2021/07/18 06:05:16;;;;;;;2.65;2.50;;;16.80;90.30;;;;;;5073611;28;20029;-62
2021/07/18 06:07:44;;;;;;;2.60;2.50;;;16.70;90.50;;;;;;5074037;28;20013;-63
2021/07/18 06:10:12;;;;;;;33.03;5.55;;;16.70;90.40;;;;;;5073986;28;20152;-62
2021/07/18 06:12:39;;;;;;;5.07;3.00;;;16.60;90.70;;;;;;5073935;28;20024;-62
2021/07/18 06:15:07;;;;;;;3.03;2.70;;;16.50;90.90;;;;;;5073869;28;20028;-62
2021/07/18 06:17:38;;;;;;;2.55;2.45;;;16.40;90.80;;;;;;5073698;28;20029;-62
2021/07/18 06:20:08;;;;;;;3.30;2.90;;;16.40;90.50;;;;;;5073654;28;20024;-61
2021/07/18 06:22:35;;;;;;;2.80;2.70;;;16.30;90.70;;;;;;5073356;28;20021;-62
2021/07/18 06:25:05;;;;;;;2.60;2.40;;;16.30;90.60;;;;;;5073606;28;20027;-63
2021/07/18 06:27:33;;;;;;;4.47;2.47;;;16.20;90.30;;;;;;5073255;28;20099;-62
2021/07/18 06:30:00;;;;;;;2.45;2.35;;;16.10;90.50;;;;;;5073210;28;20024;-62
2021/07/18 06:32:28;;;;;;;2.40;2.30;;;16.10;90.90;;;;;;5073465;28;20025;-61
2021/07/18 06:34:55;;;;;;;2.38;2.20;;;15.90;91.00;;;;;;5073143;28;20499;-62
2021/07/18 06:37:23;;;;;;;2.80;2.60;;;15.80;91.20;;;;;;5073163;28;20165;-62
2021/07/18 06:39:50;;;;;;;2.70;2.60;;;15.70;91.40;;;;;;5073191;28;20029;-63
2021/07/18 06:42:20;;;;;;;5.30;2.78;;;15.60;91.00;;;;;;5073204;28;20038;-62
2021/07/18 06:44:47;;;;;;;2.50;2.40;;;15.70;90.20;;;;;;5073351;28;20031;-62
2021/07/18 06:47:15;;;;;;;2.30;2.20;;;15.60;90.30;;;;;;5073544;28;20017;-62
2021/07/18 06:49:42;;;;;;;2.45;2.35;;;15.50;90.50;;;;;;5073313;28;20025;-63
2021/07/18 06:52:11;;;;;;;2.10;2.00;;;15.40;90.70;;;;;;5073204;28;20099;-63
2021/07/18 06:54:38;;;;;;;2.30;2.20;;;15.30;90.70;;;;;;5071823;28;20107;-62
2021/07/18 06:57:06;;;;;;;2.40;2.30;;;15.20;91.10;;;;;;5072659;28;20559;-63
2021/07/18 06:59:33;;;;;;;2.10;2.00;;;15.10;91.50;;;;;;5072617;28;20029;-62
2021/07/18 07:02:00;;;;;;;3.28;3.08;;;15.00;91.60;;;;;;5072760;28;20081;-61
2021/07/18 07:04:28;;;;;;;2.40;2.30;;;14.90;91.60;;;;;;5072760;28;20070;-62
2021/07/18 07:06:55;;;;;;;2.40;2.30;;;14.90;91.60;;;;;;5072980;28;20472;-62
2021/07/18 07:09:22;;;;;;;2.10;2.00;;;14.90;92.00;;;;;;5072829;28;20024;-61
2021/07/18 07:11:50;;;;;;;2.22;2.13;;;14.80;92.10;;;;;;5072961;28;20017;-60
2021/07/18 07:14:17;;;;;;;2.40;2.30;;;14.70;91.80;;;;;;5073117;28;20039;-63
2021/07/18 07:16:44;;;;;;;2.50;2.30;;;14.70;92.30;;;;;;5073154;28;20028;-61
2021/07/18 07:19:12;;;;;;;2.75;2.65;;;14.60;92.40;;;;;;5072304;28;20056;-62
2021/07/18 07:21:39;;;;;;;2.40;2.30;;;14.50;93.00;;;;;;5072724;28;20369;-61
2021/07/18 07:24:07;;;;;;;2.20;2.10;;;14.50;92.20;;;;;;5072815;28;20024;-62
2021/07/18 07:26:34;;;;;;;2.25;2.10;;;14.50;92.00;;;;;;5072774;28;20024;-62
2021/07/18 07:29:02;;;;;;;2.30;2.20;;;14.40;92.20;;;;;;5072838;28;20103;-62
2021/07/18 07:31:30;;;;;;;2.17;2.08;;;14.50;92.00;;;;;;5072670;28;20508;-62
2021/07/18 07:33:57;;;;;;;2.45;2.15;;;14.40;92.30;;;;;;5072717;28;20028;-63
2021/07/18 07:36:24;;;;;;;2.92;2.72;;;14.30;92.20;;;;;;5072906;28;20024;-60
2021/07/18 07:38:55;;;;;;;2.92;2.72;;;14.30;92.30;;;;;;5072620;28;20540;-60
2021/07/18 07:41:23;;;;;;;2.83;2.60;;;14.30;92.40;;;;;;5072663;28;20469;-63
2021/07/18 07:43:56;;;;;;;2.40;2.30;;;14.30;92.40;;;;;;5072669;28;20024;-61
2021/07/18 07:46:24;;;;;;;2.47;2.38;;;14.20;92.60;;;;;;5072654;28;20028;-61
2021/07/18 07:48:52;;;;;;;2.60;2.40;;;14.20;92.60;;;;;;5072731;28;20025;-60
2021/07/18 07:51:20;;;;;;;2.50;2.30;;;14.10;93.00;;;;;;5071593;28;20025;-60
2021/07/18 07:53:50;;;;;;;3.70;3.10;;;14.10;93.00;;;;;;5072530;28;20430;-60
2021/07/18 07:56:21;;;;;;;4.00;3.70;;;14.00;93.60;;;;;;5072346;28;20051;-60
2021/07/18 07:58:48;;;;;;;4.35;4.05;;;13.70;93.80;;;;;;5072377;28;20104;-60
2021/07/18 08:01:16;;;;;;;4.38;4.07;;;13.50;94.30;;;;;;5072450;28;20134;-61
2021/07/18 08:03:43;;;;;;;3.90;3.60;;;13.30;94.70;;;;;;5072362;28;20029;-61
2021/07/18 08:06:10;;;;;;;4.30;4.00;;;13.40;94.80;;;;;;5072438;28;20121;-60
2021/07/18 08:08:38;;;;;;;3.38;3.17;;;13.30;95.40;;;;;;5072487;28;20515;-61
2021/07/18 08:11:06;;;;;;;4.35;3.95;;;13.20;95.30;;;;;;5072355;28;20020;-61
2021/07/18 08:13:33;;;;;;;3.70;3.40;;;13.20;96.20;;;;;;5072396;28;20021;-62
2021/07/18 08:16:00;;;;;;;3.80;3.50;;;13.20;95.30;;;;;;5072557;28;20381;-61
2021/07/18 08:18:28;;;;;;;3.63;3.42;;;13.20;95.30;;;;;;5072225;28;20013;-61
2021/07/18 08:20:55;;;;;;;3.13;2.83;;;13.30;95.30;;;;;;5072167;28;20024;-61
2021/07/18 08:23:22;;;;;;;5.57;3.60;;;13.40;94.70;;;;;;5072206;28;20024;-62
2021/07/18 08:25:50;;;;;;;3.33;3.10;;;13.30;94.90;;;;;;5072308;28;20432;-61
2021/07/18 08:28:17;;;;;;;4.22;3.92;;;13.40;94.80;;;;;;5072147;28;20017;-61
2021/07/18 08:30:47;;;;;;;3.72;3.47;;;13.30;95.10;;;;;;5075820;28;20027;-61
2021/07/18 08:33:15;;;;;;;5.03;3.90;;;13.30;95.40;;;;;;5076159;28;20500;-60
2021/07/18 08:35:42;;;;;;;3.60;3.30;;;13.20;96.10;;;;;;5075714;28;20025;-61
2021/07/18 08:38:12;;;;;;;3.55;3.25;;;13.20;95.20;;;;;;5075686;28;20024;-60
2021/07/18 08:40:40;;;;;;;3.47;3.17;;;13.10;95.70;;;;;;5075715;28;20016;-61
2021/07/18 08:43:07;;;;;;;3.67;3.47;;;12.90;95.90;;;;;;5075613;28;20370;-62
2021/07/18 08:45:34;;;;;;;3.90;3.60;;;12.90;96.00;;;;;;5075766;28;20017;-61
2021/07/18 08:48:02;;;;;;;3.72;3.53;;;13.00;95.80;;;;;;5075492;28;20016;-61
2021/07/18 08:50:30;;;;;;;3.80;3.50;;;12.90;96.00;;;;;;5075360;28;20085;-60
2021/07/18 08:52:57;;;;;;;3.60;3.40;;;12.90;95.90;;;;;;5075686;28;20024;-62
2021/07/18 08:55:26;;;;;;;3.17;3.08;;;13.00;95.70;;;;;;5075249;28;20174;-62
2021/07/18 08:57:53;;;;;;;3.30;3.10;;;13.00;95.80;;;;;;5075301;28;20393;-60
2021/07/18 09:00:22;;;;;;;3.47;3.28;;;12.90;95.80;;;;;;5075324;28;20032;-61
2021/07/18 09:02:49;;;;;;;3.42;3.13;;;12.80;95.90;;;;;;5075284;28;20024;-62
2021/07/18 09:05:17;;;;;;;3.22;3.03;;;12.70;96.40;;;;;;5075277;28;20095;-62
2021/07/18 09:07:56;;;;;;;3.20;2.97;;;12.60;96.50;;;;;;5075155;28;20032;-61
2021/07/18 09:10:31;;;;;;;3.55;3.25;;;12.60;96.80;;;;;;5075191;28;20078;-59
2021/07/18 09:13:13;;;;;;;2.90;2.70;;;12.50;96.80;;;;;;5075179;28;20028;-60
2021/07/18 09:15:48;;;;;;;2.92;2.78;;;12.40;97.30;;;;;;5075202;28;20027;-62
2021/07/18 09:18:20;;;;;;;3.13;2.92;;;12.40;97.30;;;;;;5075204;28;20074;-60
2021/07/18 09:20:50;;;;;;;3.40;3.10;;;12.50;97.00;;;;;;5074868;28;20044;-61
2021/07/18 09:23:28;;;;;;;3.17;2.97;;;12.40;97.20;;;;;;5073744;28;20051;-60
2021/07/18 09:26:22;;;;;;;3.10;2.80;;;12.40;97.20;;;;;;5075078;28;20480;-61
2021/07/18 09:28:50;;;;;;;3.10;2.90;;;12.40;97.50;;;;;;5074890;28;20103;-60
2021/07/18 09:31:28;;;;;;;3.30;3.10;;;12.20;97.90;;;;;;5075140;28;20024;-60
2021/07/18 09:34:19;;;;;;;3.10;2.90;;;12.10;98.20;;;;;;5074989;28;20531;-60
2021/07/18 09:36:47;;;;;;;3.28;2.90;;;12.10;98.30;;;;;;5074845;28;20036;-61
2021/07/18 09:39:15;;;;;;;3.45;3.15;;;12.10;98.50;;;;;;5074650;28;20029;-60
2021/07/18 09:41:46;;;;;;;3.33;3.13;;;12.10;98.30;;;;;;5074318;28;20021;-61
2021/07/18 09:44:14;;;;;;;3.13;2.92;;;12.00;98.70;;;;;;5074970;28;20499;-61
2021/07/18 09:46:41;;;;;;;2.83;2.53;;;11.90;98.80;;;;;;5074754;28;20020;-61
2021/07/18 09:49:08;;;;;;;4.90;3.30;;;11.80;99.10;;;;;;5074503;28;20051;-60
2021/07/18 09:51:36;;;;;;;3.33;3.10;;;11.80;99.30;;;;;;5074478;28;20027;-60
2021/07/18 09:54:14;;;;;;;3.58;3.28;;;11.80;99.20;;;;;;5074111;28;20036;-61
2021/07/18 09:56:41;;;;;;;3.45;3.15;;;12.00;98.90;;;;;;5073920;28;20131;-61
2021/07/18 09:59:10;;;;;;;3.08;2.90;;;12.10;98.40;;;;;;5073990;28;20522;-61
2021/07/18 10:01:37;;;;;;;2.70;2.60;;;12.20;98.20;;;;;;5074123;28;20489;-61
2021/07/18 10:04:05;;;;;;;2.70;2.50;;;12.40;98.10;;;;;;5073983;28;20051;-60
2021/07/18 10:06:33;;;;;;;3.08;2.88;;;12.20;98.30;;;;;;5073854;28;20020;-60
2021/07/18 10:09:05;;;;;;;2.90;2.70;;;12.10;98.30;;;;;;5073938;28;20042;-61
2021/07/18 10:11:33;;;;;;;3.15;2.85;;;12.10;98.20;;;;;;5073805;28;20035;-63
2021/07/18 10:14:01;;;;;;;2.90;2.75;;;12.10;98.40;;;;;;5073852;28;20419;-61
2021/07/18 10:16:32;;;;;;;3.28;2.97;;;12.10;98.50;;;;;;5073803;28;20024;-61
2021/07/18 10:18:59;;;;;;;3.30;3.00;;;12.10;98.30;;;;;;5073610;28;20063;-61
2021/07/18 10:21:29;;;;;;;3.00;2.80;;;12.10;98.60;;;;;;5073702;28;20028;-60
2021/07/18 10:23:58;;;;;;;3.10;2.90;;;12.00;98.50;;;;;;5073729;28;20429;-60
2021/07/18 10:26:35;;;;;;;2.80;2.70;;;12.00;98.40;;;;;;5073499;28;20029;-60
2021/07/18 10:29:03;;;;;;;3.08;2.88;;;12.00;98.70;;;;;;5073510;28;20025;-63
2021/07/18 10:31:42;;;;;;;3.17;2.90;;;12.00;98.40;;;;;;5073463;28;20033;-61
2021/07/18 10:34:11;;;;;;;3.00;2.80;;;12.00;98.30;;;;;;5073500;28;20024;-61
2021/07/18 10:36:38;;;;;;;3.00;2.80;;;11.90;98.50;;;;;;5073350;28;20031;-62
2021/07/18 10:39:31;;;;;;;3.58;3.08;;;11.90;98.60;;;;;;5073609;28;20052;-61
2021/07/18 10:42:01;;;;;;;6.30;4.90;;;12.00;98.40;;;;;;5073311;28;20016;-61
2021/07/18 10:44:50;;;;;;;3.20;3.10;;;12.00;98.80;;;;;;5073241;28;20044;-61
2021/07/18 10:47:18;;;;;;;2.70;2.60;;;11.90;98.60;;;;;;5073278;28;20044;-62
2021/07/18 10:49:48;;;;;;;2.70;2.60;;;11.80;98.70;;;;;;5073185;28;20032;-63
2021/07/18 10:52:15;;;;;;;3.25;3.08;;;11.90;98.70;;;;;;5072334;28;20028;-63
2021/07/18 10:54:43;;;;;;;3.63;3.00;;;11.90;98.90;;;;;;5073006;28;20137;-62
2021/07/18 10:57:32;;;;;;;3.53;3.25;;;11.80;99.20;;;;;;5072871;28;20431;-61
2021/07/18 11:00:27;;;;;;;3.65;2.92;;;11.70;99.40;;;;;;5072930;28;20031;-60
2021/07/18 11:03:12;;;;;;;6.38;5.78;;;11.70;99.50;;;;;;5073032;28;20039;-59
2021/07/18 11:05:46;;;;;;;2.92;2.72;;;11.60;99.90;;;;;;5074173;28;20013;-62
2021/07/18 11:08:15;;;;;;;2.92;2.80;;;11.70;99.40;;;;;;5073118;28;20025;-60
2021/07/18 11:10:53;;;;;;;3.13;2.90;;;11.60;99.50;;;;;;5072910;28;20519;-62
2021/07/18 11:13:22;;;;;;;3.47;3.10;;;11.60;99.50;;;;;;5072889;28;20016;-62
2021/07/18 11:15:50;;;;;;;2.80;2.63;;;11.60;99.60;;;;;;5072926;28;20028;-62
2021/07/18 11:18:38;;;;;;;2.60;2.50;;;11.50;99.70;;;;;;5072711;28;20416;-64
2021/07/18 11:21:07;;;;;;;2.88;2.70;;;11.50;99.90;;;;;;5072925;28;20024;-64
2021/07/18 11:23:43;;;;;;;3.03;2.83;;;11.40;99.90;;;;;;5072864;28;20166;-62
2021/07/18 11:26:18;;;;;;;3.20;2.60;;;11.30;99.90;;;;;;5072623;28;20039;-62
2021/07/18 11:28:57;;;;;;;3.20;3.00;;;11.20;99.90;;;;;;5072672;28;20476;-62
2021/07/18 11:31:34;;;;;;;3.08;2.88;;;11.20;99.90;;;;;;5072709;28;20035;-62
2021/07/18 11:34:10;;;;;;;3.08;2.97;;;11.10;99.90;;;;;;5072817;28;20178;-62
2021/07/18 11:36:41;;;;;;;3.33;3.08;;;11.10;99.90;;;;;;5073150;28;20029;-63
2021/07/18 11:39:16;;;;;;;3.30;3.10;;;11.10;99.90;;;;;;5072742;28;20036;-62
2021/07/18 11:41:44;;;;;;;3.22;3.03;;;11.00;99.90;;;;;;5072855;28;20203;-62
2021/07/18 11:44:14;;;;;;;3.00;2.80;;;10.90;99.90;;;;;;5072873;28;20012;-62
2021/07/18 11:46:43;;;;;;;3.85;3.42;;;10.90;99.90;;;;;;5072692;28;20070;-62
2021/07/18 11:49:12;;;;;;;3.35;3.10;;;10.70;99.90;;;;;;5072551;28;20131;-62
2021/07/18 11:51:42;;;;;;;3.58;3.15;;;10.70;99.90;;;;;;5072639;28;20032;-62
2021/07/18 11:54:10;;;;;;;3.40;3.20;;;10.80;99.90;;;;;;5072499;28;20165;-63
2021/07/18 11:56:45;;;;;;;3.50;3.30;;;10.90;99.90;;;;;;5072244;28;20044;-63
2021/07/18 11:59:15;;;;;;;3.40;3.20;;;10.80;99.90;;;;;;5071151;28;20031;-62
2021/07/18 12:01:45;;;;;;;3.42;3.22;;;10.70;99.90;;;;;;5072450;28;20021;-63
2021/07/18 12:04:15;;;;;;;3.40;3.20;;;10.80;99.90;;;;;;5073790;28;20070;-62
2021/07/18 12:06:43;;;;;;;3.85;3.65;;;10.80;99.90;;;;;;5076320;28;20029;-63
2021/07/18 12:09:17;;;;;;;3.60;3.40;;;10.90;99.90;;;;;;5076206;28;20480;-62
2021/07/18 12:11:48;;;;;;;3.50;3.30;;;10.90;99.90;;;;;;5076232;28;20027;-61
2021/07/18 12:14:17;;;;;;;3.50;3.30;;;10.80;99.90;;;;;;5076107;28;20111;-61
2021/07/18 12:16:45;;;;;;;3.78;3.58;;;10.80;99.90;;;;;;5076124;28;20028;-62
2021/07/18 12:19:15;;;;;;;3.90;3.70;;;10.80;99.90;;;;;;5076035;28;20021;-61
2021/07/18 12:21:48;;;;;;;3.70;3.50;;;10.80;99.90;;;;;;5076089;28;20381;-62
2021/07/18 12:24:29;;;;;;;3.97;3.78;;;10.80;99.90;;;;;;5076005;28;20032;-62
2021/07/18 12:27:06;;;;;;;4.00;3.70;;;10.90;99.90;;;;;;5075862;28;20119;-61
2021/07/18 12:29:35;;;;;;;4.45;4.15;;;10.80;99.90;;;;;;5075742;28;20036;-61
2021/07/18 12:32:03;;;;;;;3.70;3.50;;;10.80;99.90;;;;;;5076031;28;20029;-61
2021/07/18 12:34:48;;;;;;;3.80;3.60;;;10.70;99.90;;;;;;5075922;28;20107;-61
2021/07/18 12:37:20;;;;;;;3.60;3.40;;;10.70;99.90;;;;;;5075663;28;20032;-61
2021/07/18 12:40:03;;;;;;;3.85;3.65;;;10.70;99.90;;;;;;5076051;28;20112;-60
2021/07/18 12:42:34;;;;;;;3.60;3.40;;;10.70;99.90;;;;;;5075678;28;20031;-61
2021/07/18 12:45:21;;;;;;;3.80;3.50;;;10.80;99.90;;;;;;5075691;28;20476;-62
2021/07/18 12:47:52;;;;;;;3.50;3.30;;;10.60;99.90;;;;;;5075563;28;20078;-62
2021/07/18 12:50:34;;;;;;;3.75;3.45;;;10.70;99.90;;;;;;5075564;28;20027;-61
2021/07/18 12:53:15;;;;;;;3.45;3.25;;;10.70;99.90;;;;;;5075474;28;20025;-61
2021/07/18 12:55:59;;;;;;;3.60;3.40;;;10.70;99.90;;;;;;5075235;28;20028;-61
2021/07/18 12:58:34;;;;;;;3.80;3.60;;;10.70;99.90;;;;;;5075450;28;20488;-61